Warren, Connecticut
Current Conditions -  °F | °C
As of 11:45 AM on Friday 19 Dec 2014 (Local Time) from KOXC Reporting Station
Broken Clouds Broken Clouds  
Wind Chill: 26°   Ceiling: 2900
Heat Index: 34°   Visibility: 10mi
Dew Point: 18°   Wind: 10mph
Humidity: 52%   Direction: 350°N
Pressure: 30"   Gusts: 16mph
Location:  41.6879°N, 73.3378°W
Report Text: KOXC 191545Z 35009G14KT 10SM BKN029 BKN045 01/M08 A3000
Loading
Personal Weather Stations






























Interactive Weather Map New forecast layout! Learn more

10-Day Weather Forecast

Advertisements
Track Severe Weather on mobile